sensor_id;sensor_type;location;lat;lon;timestamp;P1;durP1;ratioP1;P2;durP2;ratioP2
71937;SDS011;59810;48.800;9.086;2023-04-06T00:02:11;11.33;;;3.93;;
71937;SDS011;59810;48.800;9.086;2023-04-06T00:04:36;9.47;;;4.00;;
71937;SDS011;59810;48.800;9.086;2023-04-06T00:07:01;10.23;;;4.17;;
71937;SDS011;59810;48.800;9.086;2023-04-06T00:09:27;9.20;;;3.88;;
71937;SDS011;59810;48.800;9.086;2023-04-06T00:11:52;9.90;;;4.20;;
71937;SDS011;59810;48.800;9.086;2023-04-06T00:14:17;9.43;;;4.13;;
71937;SDS011;59810;48.800;9.086;2023-04-06T00:16:48;11.10;;;4.72;;
71937;SDS011;59810;48.800;9.086;2023-04-06T00:19:13;11.20;;;4.53;;
71937;SDS011;59810;48.800;9.086;2023-04-06T00:21:39;9.60;;;4.53;;
71937;SDS011;59810;48.800;9.086;2023-04-06T00:24:04;13.67;;;5.20;;
71937;SDS011;59810;48.800;9.086;2023-04-06T00:26:30;11.60;;;5.03;;
71937;SDS011;59810;48.800;9.086;2023-04-06T00:28:55;10.93;;;3.85;;
71937;SDS011;59810;48.800;9.086;2023-04-06T00:31:21;10.83;;;4.67;;
71937;SDS011;59810;48.800;9.086;2023-04-06T00:33:47;8.60;;;3.93;;
71937;SDS011;59810;48.800;9.086;2023-04-06T00:36:13;9.13;;;3.80;;
71937;SDS011;59810;48.800;9.086;2023-04-06T00:38:38;11.20;;;3.90;;
71937;SDS011;59810;48.800;9.086;2023-04-06T00:41:04;9.53;;;3.87;;
71937;SDS011;59810;48.800;9.086;2023-04-06T00:43:29;11.15;;;4.38;;
71937;SDS011;59810;48.800;9.086;2023-04-06T00:45:55;10.60;;;4.23;;
71937;SDS011;59810;48.800;9.086;2023-04-06T00:48:23;10.00;;;4.07;;
71937;SDS011;59810;48.800;9.086;2023-04-06T00:50:48;10.63;;;4.28;;
71937;SDS011;59810;48.800;9.086;2023-04-06T00:53:18;12.82;;;3.97;;
71937;SDS011;59810;48.800;9.086;2023-04-06T00:55:43;9.63;;;3.90;;
71937;SDS011;59810;48.800;9.086;2023-04-06T00:58:08;8.80;;;3.67;;
71937;SDS011;59810;48.800;9.086;2023-04-06T01:00:34;7.97;;;3.70;;
71937;SDS011;59810;48.800;9.086;2023-04-06T01:03:00;9.88;;;4.50;;
71937;SDS011;59810;48.800;9.086;2023-04-06T01:05:26;8.87;;;4.07;;
71937;SDS011;59810;48.800;9.086;2023-04-06T01:07:51;8.80;;;4.10;;
71937;SDS011;59810;48.800;9.086;2023-04-06T01:10:23;9.27;;;3.63;;
71937;SDS011;59810;48.800;9.086;2023-04-06T01:12:53;10.60;;;4.40;;
71937;SDS011;59810;48.800;9.086;2023-04-06T01:15:18;9.43;;;3.70;;
71937;SDS011;59810;48.800;9.086;2023-04-06T01:17:47;9.93;;;4.10;;
71937;SDS011;59810;48.800;9.086;2023-04-06T01:20:12;8.27;;;3.57;;
71937;SDS011;59810;48.800;9.086;2023-04-06T01:22:38;9.77;;;4.10;;
71937;SDS011;59810;48.800;9.086;2023-04-06T01:25:07;8.50;;;4.07;;
71937;SDS011;59810;48.800;9.086;2023-04-06T01:27:33;13.27;;;4.33;;
71937;SDS011;59810;48.800;9.086;2023-04-06T01:29:59;10.13;;;4.32;;
71937;SDS011;59810;48.800;9.086;2023-04-06T01:32:24;10.57;;;5.00;;
71937;SDS011;59810;48.800;9.086;2023-04-06T01:34:50;12.55;;;4.10;;
71937;SDS011;59810;48.800;9.086;2023-04-06T01:37:18;11.47;;;4.57;;
71937;SDS011;59810;48.800;9.086;2023-04-06T01:39:44;9.32;;;4.20;;
71937;SDS011;59810;48.800;9.086;2023-04-06T01:42:09;10.70;;;4.20;;
71937;SDS011;59810;48.800;9.086;2023-04-06T01:44:34;10.97;;;4.67;;
71937;SDS011;59810;48.800;9.086;2023-04-06T01:47:02;9.40;;;4.45;;
71937;SDS011;59810;48.800;9.086;2023-04-06T01:49:28;9.83;;;3.83;;
71937;SDS011;59810;48.800;9.086;2023-04-06T01:51:53;9.70;;;3.90;;
71937;SDS011;59810;48.800;9.086;2023-04-06T01:54:19;12.82;;;5.03;;
71937;SDS011;59810;48.800;9.086;2023-04-06T01:56:45;10.37;;;4.03;;
71937;SDS011;59810;48.800;9.086;2023-04-06T01:59:12;11.23;;;4.23;;
71937;SDS011;59810;48.800;9.086;2023-04-06T02:01:40;9.82;;;4.13;;
71937;SDS011;59810;48.800;9.086;2023-04-06T02:04:06;9.98;;;4.13;;
71937;SDS011;59810;48.800;9.086;2023-04-06T02:06:31;10.83;;;4.40;;
71937;SDS011;59810;48.800;9.086;2023-04-06T02:08:56;9.83;;;3.80;;
71937;SDS011;59810;48.800;9.086;2023-04-06T02:11:22;8.43;;;3.63;;
71937;SDS011;59810;48.800;9.086;2023-04-06T02:13:49;9.63;;;4.35;;
71937;SDS011;59810;48.800;9.086;2023-04-06T02:16:15;10.13;;;3.90;;
71937;SDS011;59810;48.800;9.086;2023-04-06T02:18:43;9.98;;;3.92;;
71937;SDS011;59810;48.800;9.086;2023-04-06T02:21:08;9.38;;;4.18;;
71937;SDS011;59810;48.800;9.086;2023-04-06T02:23:34;10.40;;;4.40;;
71937;SDS011;59810;48.800;9.086;2023-04-06T02:25:59;9.00;;;3.70;;
71937;SDS011;59810;48.800;9.086;2023-04-06T02:28:25;10.43;;;3.70;;
71937;SDS011;59810;48.800;9.086;2023-04-06T02:30:50;8.63;;;3.50;;
71937;SDS011;59810;48.800;9.086;2023-04-06T02:33:16;9.70;;;4.07;;
71937;SDS011;59810;48.800;9.086;2023-04-06T02:35:41;10.20;;;3.80;;
71937;SDS011;59810;48.800;9.086;2023-04-06T02:38:06;10.20;;;4.27;;
71937;SDS011;59810;48.800;9.086;2023-04-06T02:40:32;13.53;;;4.40;;
71937;SDS011;59810;48.800;9.086;2023-04-06T02:42:57;11.43;;;4.53;;
71937;SDS011;59810;48.800;9.086;2023-04-06T02:45:22;10.15;;;3.85;;
71937;SDS011;59810;48.800;9.086;2023-04-06T02:47:48;13.40;;;4.60;;
71937;SDS011;59810;48.800;9.086;2023-04-06T02:50:13;11.13;;;4.27;;
71937;SDS011;59810;48.800;9.086;2023-04-06T02:52:39;9.87;;;4.37;;
71937;SDS011;59810;48.800;9.086;2023-04-06T02:55:07;14.83;;;4.63;;
71937;SDS011;59810;48.800;9.086;2023-04-06T02:57:33;11.38;;;4.90;;
71937;SDS011;59810;48.800;9.086;2023-04-06T02:59:58;11.47;;;4.70;;
71937;SDS011;59810;48.800;9.086;2023-04-06T03:02:24;9.60;;;4.35;;
71937;SDS011;59810;48.800;9.086;2023-04-06T03:04:50;11.97;;;4.73;;
71937;SDS011;59810;48.800;9.086;2023-04-06T03:07:20;11.60;;;4.85;;
71937;SDS011;59810;48.800;9.086;2023-04-06T03:09:45;10.02;;;4.60;;
71937;SDS011;59810;48.800;9.086;2023-04-06T03:12:13;13.10;;;4.80;;
71937;SDS011;59810;48.800;9.086;2023-04-06T03:14:38;11.65;;;4.80;;
71937;SDS011;59810;48.800;9.086;2023-04-06T03:17:06;11.57;;;4.73;;
71937;SDS011;59810;48.800;9.086;2023-04-06T03:19:33;10.80;;;4.82;;
71937;SDS011;59810;48.800;9.086;2023-04-06T03:21:59;10.57;;;4.57;;
71937;SDS011;59810;48.800;9.086;2023-04-06T03:24:24;12.25;;;5.10;;
71937;SDS011;59810;48.800;9.086;2023-04-06T03:26:50;10.83;;;4.97;;
71937;SDS011;59810;48.800;9.086;2023-04-06T03:29:15;10.50;;;4.67;;
71937;SDS011;59810;48.800;9.086;2023-04-06T03:31:40;12.40;;;5.20;;
71937;SDS011;59810;48.800;9.086;2023-04-06T03:34:06;12.30;;;5.60;;
71937;SDS011;59810;48.800;9.086;2023-04-06T03:36:34;11.38;;;5.13;;
71937;SDS011;59810;48.800;9.086;2023-04-06T03:39:02;12.95;;;5.35;;
71937;SDS011;59810;48.800;9.086;2023-04-06T03:41:28;13.40;;;5.47;;
71937;SDS011;59810;48.800;9.086;2023-04-06T03:43:56;13.50;;;5.13;;
71937;SDS011;59810;48.800;9.086;2023-04-06T03:46:21;13.17;;;4.97;;
71937;SDS011;59810;48.800;9.086;2023-04-06T03:48:49;12.37;;;4.97;;
71937;SDS011;59810;48.800;9.086;2023-04-06T03:51:14;15.35;;;5.82;;
71937;SDS011;59810;48.800;9.086;2023-04-06T03:53:40;13.07;;;5.17;;
71937;SDS011;59810;48.800;9.086;2023-04-06T03:56:05;14.57;;;5.00;;
71937;SDS011;59810;48.800;9.086;2023-04-06T03:58:31;12.20;;;5.27;;
71937;SDS011;59810;48.800;9.086;2023-04-06T04:00:56;15.07;;;5.57;;
71937;SDS011;59810;48.800;9.086;2023-04-06T04:03:22;14.10;;;5.07;;
71937;SDS011;59810;48.800;9.086;2023-04-06T04:05:48;13.27;;;4.83;;
71937;SDS011;59810;48.800;9.086;2023-04-06T04:08:15;13.38;;;5.43;;
71937;SDS011;59810;48.800;9.086;2023-04-06T04:10:40;13.00;;;5.17;;
71937;SDS011;59810;48.800;9.086;2023-04-06T04:13:06;10.95;;;4.57;;
71937;SDS011;59810;48.800;9.086;2023-04-06T04:15:31;14.43;;;5.20;;
71937;SDS011;59810;48.800;9.086;2023-04-06T04:17:56;13.17;;;5.50;;
71937;SDS011;59810;48.800;9.086;2023-04-06T04:20:22;12.87;;;4.90;;
71937;SDS011;59810;48.800;9.086;2023-04-06T04:22:47;12.57;;;4.90;;
71937;SDS011;59810;48.800;9.086;2023-04-06T04:25:13;11.90;;;4.83;;
71937;SDS011;59810;48.800;9.086;2023-04-06T04:27:38;12.35;;;5.25;;
71937;SDS011;59810;48.800;9.086;2023-04-06T04:30:05;12.40;;;5.17;;
71937;SDS011;59810;48.800;9.086;2023-04-06T04:32:31;14.05;;;5.72;;
71937;SDS011;59810;48.800;9.086;2023-04-06T04:34:56;14.50;;;5.50;;
71937;SDS011;59810;48.800;9.086;2023-04-06T04:37:21;11.67;;;4.93;;
71937;SDS011;59810;48.800;9.086;2023-04-06T04:39:47;12.40;;;5.60;;
71937;SDS011;59810;48.800;9.086;2023-04-06T04:42:12;11.52;;;5.25;;
71937;SDS011;59810;48.800;9.086;2023-04-06T04:44:38;12.70;;;5.27;;
71937;SDS011;59810;48.800;9.086;2023-04-06T04:47:06;12.88;;;5.85;;
71937;SDS011;59810;48.800;9.086;2023-04-06T04:49:31;16.07;;;5.70;;
71937;SDS011;59810;48.800;9.086;2023-04-06T04:51:59;13.68;;;5.38;;
71937;SDS011;59810;48.800;9.086;2023-04-06T04:54:24;12.97;;;5.80;;
71937;SDS011;59810;48.800;9.086;2023-04-06T04:56:49;12.20;;;5.27;;
71937;SDS011;59810;48.800;9.086;2023-04-06T04:59:18;12.88;;;5.75;;
71937;SDS011;59810;48.800;9.086;2023-04-06T05:01:44;12.30;;;5.20;;
71937;SDS011;59810;48.800;9.086;2023-04-06T05:04:11;11.57;;;5.13;;
71937;SDS011;59810;48.800;9.086;2023-04-06T05:06:36;13.43;;;5.60;;
71937;SDS011;59810;48.800;9.086;2023-04-06T05:09:04;13.23;;;5.70;;
71937;SDS011;59810;48.800;9.086;2023-04-06T05:11:30;14.37;;;6.13;;
71937;SDS011;59810;48.800;9.086;2023-04-06T05:13:55;13.70;;;5.77;;
71937;SDS011;59810;48.800;9.086;2023-04-06T05:16:22;12.38;;;5.28;;
71937;SDS011;59810;48.800;9.086;2023-04-06T05:18:48;14.53;;;6.00;;
71937;SDS011;59810;48.800;9.086;2023-04-06T05:21:15;14.50;;;5.43;;
71937;SDS011;59810;48.800;9.086;2023-04-06T05:23:41;15.80;;;5.87;;
71937;SDS011;59810;48.800;9.086;2023-04-06T05:26:06;12.15;;;5.50;;
71937;SDS011;59810;48.800;9.086;2023-04-06T05:28:32;14.87;;;5.47;;
71937;SDS011;59810;48.800;9.086;2023-04-06T05:30:57;17.13;;;5.60;;
71937;SDS011;59810;48.800;9.086;2023-04-06T05:33:24;14.13;;;6.25;;
71937;SDS011;59810;48.800;9.086;2023-04-06T05:35:51;13.70;;;6.10;;
71937;SDS011;59810;48.800;9.086;2023-04-06T05:38:16;15.45;;;6.20;;
71937;SDS011;59810;48.800;9.086;2023-04-06T05:40:44;12.60;;;5.80;;
71937;SDS011;59810;48.800;9.086;2023-04-06T05:43:10;13.60;;;5.65;;
71937;SDS011;59810;48.800;9.086;2023-04-06T05:45:35;17.10;;;6.47;;
71937;SDS011;59810;48.800;9.086;2023-04-06T05:48:01;15.67;;;6.17;;
71937;SDS011;59810;48.800;9.086;2023-04-06T05:50:29;14.65;;;6.10;;
71937;SDS011;59810;48.800;9.086;2023-04-06T05:52:57;16.05;;;5.75;;
71937;SDS011;59810;48.800;9.086;2023-04-06T05:55:22;14.13;;;6.70;;
71937;SDS011;59810;48.800;9.086;2023-04-06T05:57:47;13.97;;;6.00;;
71937;SDS011;59810;48.800;9.086;2023-04-06T06:00:13;15.77;;;6.80;;
71937;SDS011;59810;48.800;9.086;2023-04-06T06:02:39;15.07;;;6.45;;
71937;SDS011;59810;48.800;9.086;2023-04-06T06:05:08;15.18;;;6.90;;
71937;SDS011;59810;48.800;9.086;2023-04-06T06:07:34;17.37;;;6.90;;
71937;SDS011;59810;48.800;9.086;2023-04-06T06:10:00;16.60;;;6.78;;
71937;SDS011;59810;48.800;9.086;2023-04-06T06:12:25;14.03;;;6.00;;
71937;SDS011;59810;48.800;9.086;2023-04-06T06:14:51;14.80;;;6.30;;
71937;SDS011;59810;48.800;9.086;2023-04-06T06:17:16;15.13;;;6.83;;
71937;SDS011;59810;48.800;9.086;2023-04-06T06:19:44;16.05;;;7.35;;
71937;SDS011;59810;48.800;9.086;2023-04-06T06:22:09;16.37;;;7.10;;
71937;SDS011;59810;48.800;9.086;2023-04-06T06:24:37;18.08;;;7.00;;
71937;SDS011;59810;48.800;9.086;2023-04-06T06:27:05;17.53;;;7.17;;
71937;SDS011;59810;48.800;9.086;2023-04-06T06:29:32;18.10;;;8.00;;
71937;SDS011;59810;48.800;9.086;2023-04-06T06:31:58;14.27;;;6.90;;
71937;SDS011;59810;48.800;9.086;2023-04-06T06:34:23;18.93;;;7.43;;
71937;SDS011;59810;48.800;9.086;2023-04-06T06:36:48;17.77;;;7.47;;
71937;SDS011;59810;48.800;9.086;2023-04-06T06:39:19;20.30;;;7.70;;
71937;SDS011;59810;48.800;9.086;2023-04-06T06:41:46;17.10;;;7.10;;
71937;SDS011;59810;48.800;9.086;2023-04-06T06:44:12;18.97;;;7.07;;
71937;SDS011;59810;48.800;9.086;2023-04-06T06:46:39;14.53;;;7.23;;
71937;SDS011;59810;48.800;9.086;2023-04-06T06:49:05;16.93;;;7.53;;
71937;SDS011;59810;48.800;9.086;2023-04-06T06:51:30;15.35;;;7.18;;
71937;SDS011;59810;48.800;9.086;2023-04-06T06:53:56;15.60;;;7.10;;
71937;SDS011;59810;48.800;9.086;2023-04-06T06:56:21;17.40;;;7.03;;
71937;SDS011;59810;48.800;9.086;2023-04-06T06:58:50;15.32;;;7.40;;
71937;SDS011;59810;48.800;9.086;2023-04-06T07:01:16;16.20;;;7.30;;
71937;SDS011;59810;48.800;9.086;2023-04-06T07:03:41;15.70;;;7.13;;
71937;SDS011;59810;48.800;9.086;2023-04-06T07:06:07;20.50;;;8.00;;
71937;SDS011;59810;48.800;9.086;2023-04-06T07:08:32;17.13;;;7.50;;
71937;SDS011;59810;48.800;9.086;2023-04-06T07:10:58;17.75;;;7.28;;
71937;SDS011;59810;48.800;9.086;2023-04-06T07:13:23;14.63;;;7.13;;
71937;SDS011;59810;48.800;9.086;2023-04-06T07:15:49;14.82;;;6.80;;
71937;SDS011;59810;48.800;9.086;2023-04-06T07:18:15;17.40;;;7.73;;
71937;SDS011;59810;48.800;9.086;2023-04-06T07:20:43;14.57;;;7.40;;
71937;SDS011;59810;48.800;9.086;2023-04-06T07:23:09;15.23;;;6.68;;
71937;SDS011;59810;48.800;9.086;2023-04-06T07:25:34;15.77;;;6.30;;
71937;SDS011;59810;48.800;9.086;2023-04-06T07:28:00;17.00;;;7.40;;
71937;SDS011;59810;48.800;9.086;2023-04-06T07:30:26;14.50;;;6.53;;
71937;SDS011;59810;48.800;9.086;2023-04-06T07:32:52;12.50;;;6.20;;
71937;SDS011;59810;48.800;9.086;2023-04-06T07:35:20;17.83;;;8.23;;
71937;SDS011;59810;48.800;9.086;2023-04-06T07:37:46;16.70;;;7.80;;
71937;SDS011;59810;48.800;9.086;2023-04-06T07:40:11;15.20;;;7.30;;
71937;SDS011;59810;48.800;9.086;2023-04-06T07:42:37;15.77;;;7.33;;
71937;SDS011;59810;48.800;9.086;2023-04-06T07:45:02;16.50;;;8.47;;
71937;SDS011;59810;48.800;9.086;2023-04-06T07:47:31;13.85;;;7.65;;
71937;SDS011;59810;48.800;9.086;2023-04-06T07:49:56;16.87;;;8.03;;
71937;SDS011;59810;48.800;9.086;2023-04-06T07:52:21;18.53;;;7.60;;
71937;SDS011;59810;48.800;9.086;2023-04-06T07:54:47;16.67;;;8.03;;
71937;SDS011;59810;48.800;9.086;2023-04-06T07:57:14;16.33;;;7.50;;
71937;SDS011;59810;48.800;9.086;2023-04-06T07:59:39;20.40;;;8.50;;
71937;SDS011;59810;48.800;9.086;2023-04-06T08:02:05;17.97;;;8.30;;
71937;SDS011;59810;48.800;9.086;2023-04-06T08:04:31;16.80;;;7.53;;
71937;SDS011;59810;48.800;9.086;2023-04-06T08:06:56;18.43;;;8.07;;
71937;SDS011;59810;48.800;9.086;2023-04-06T08:09:24;15.65;;;7.95;;
71937;SDS011;59810;48.800;9.086;2023-04-06T08:11:52;19.13;;;7.73;;
71937;SDS011;59810;48.800;9.086;2023-04-06T08:14:18;17.17;;;7.45;;
71937;SDS011;59810;48.800;9.086;2023-04-06T08:16:43;15.07;;;7.23;;
71937;SDS011;59810;48.800;9.086;2023-04-06T08:19:09;14.77;;;7.83;;
71937;SDS011;59810;48.800;9.086;2023-04-06T08:21:35;14.73;;;7.38;;
71937;SDS011;59810;48.800;9.086;2023-04-06T08:24:01;16.25;;;7.45;;
71937;SDS011;59810;48.800;9.086;2023-04-06T08:26:26;15.67;;;7.40;;
71937;SDS011;59810;48.800;9.086;2023-04-06T08:28:52;15.20;;;6.83;;
71937;SDS011;59810;48.800;9.086;2023-04-06T08:31:17;14.68;;;6.28;;
71937;SDS011;59810;48.800;9.086;2023-04-06T08:33:43;10.43;;;5.30;;
71937;SDS011;59810;48.800;9.086;2023-04-06T08:36:12;11.97;;;5.40;;
71937;SDS011;59810;48.800;9.086;2023-04-06T08:38:40;12.07;;;5.40;;
71937;SDS011;59810;48.800;9.086;2023-04-06T08:41:10;9.50;;;4.78;;
71937;SDS011;59810;48.800;9.086;2023-04-06T08:43:56;14.13;;;5.38;;
71937;SDS011;59810;48.800;9.086;2023-04-06T08:46:26;11.95;;;5.75;;
71937;SDS011;59810;48.800;9.086;2023-04-06T08:49:00;13.10;;;6.47;;
71937;SDS011;59810;48.800;9.086;2023-04-06T08:51:28;11.68;;;5.72;;
71937;SDS011;59810;48.800;9.086;2023-04-06T08:53:55;12.43;;;6.32;;
71937;SDS011;59810;48.800;9.086;2023-04-06T08:56:25;13.70;;;6.63;;
71937;SDS011;59810;48.800;9.086;2023-04-06T08:58:54;11.30;;;5.78;;
71937;SDS011;59810;48.800;9.086;2023-04-06T09:01:21;13.40;;;6.93;;
71937;SDS011;59810;48.800;9.086;2023-04-06T09:03:50;12.18;;;6.55;;
71937;SDS011;59810;48.800;9.086;2023-04-06T09:06:20;10.57;;;5.43;;
71937;SDS011;59810;48.800;9.086;2023-04-06T09:08:46;12.65;;;6.90;;
71937;SDS011;59810;48.800;9.086;2023-04-06T09:11:11;17.63;;;6.87;;
71937;SDS011;59810;48.800;9.086;2023-04-06T09:13:46;14.23;;;6.80;;
71937;SDS011;59810;48.800;9.086;2023-04-06T09:16:22;13.80;;;7.13;;
71937;SDS011;59810;48.800;9.086;2023-04-06T09:18:48;13.27;;;6.70;;
71937;SDS011;59810;48.800;9.086;2023-04-06T09:21:16;13.90;;;6.93;;
71937;SDS011;59810;48.800;9.086;2023-04-06T09:23:45;14.07;;;6.97;;
71937;SDS011;59810;48.800;9.086;2023-04-06T09:26:16;14.90;;;7.00;;
71937;SDS011;59810;48.800;9.086;2023-04-06T09:31:12;13.48;;;6.85;;
71937;SDS011;59810;48.800;9.086;2023-04-06T09:33:43;13.23;;;6.60;;
71937;SDS011;59810;48.800;9.086;2023-04-06T09:36:10;13.68;;;7.00;;
71937;SDS011;59810;48.800;9.086;2023-04-06T09:38:59;11.65;;;7.07;;
71937;SDS011;59810;48.800;9.086;2023-04-06T09:41:30;16.10;;;7.68;;
71937;SDS011;59810;48.800;9.086;2023-04-06T09:44:06;15.57;;;6.55;;
71937;SDS011;59810;48.800;9.086;2023-04-06T09:46:43;15.50;;;6.23;;
71937;SDS011;59810;48.800;9.086;2023-04-06T09:49:10;13.93;;;6.65;;
71937;SDS011;59810;48.800;9.086;2023-04-06T09:51:37;15.98;;;7.95;;
71937;SDS011;59810;48.800;9.086;2023-04-06T09:54:05;15.70;;;6.18;;
71937;SDS011;59810;48.800;9.086;2023-04-06T09:59:36;12.90;;;6.03;;
71937;SDS011;59810;48.800;9.086;2023-04-06T10:02:22;12.63;;;6.22;;
71937;SDS011;59810;48.800;9.086;2023-04-06T10:05:15;14.50;;;6.80;;
71937;SDS011;59810;48.800;9.086;2023-04-06T10:07:42;13.07;;;6.60;;
71937;SDS011;59810;48.800;9.086;2023-04-06T10:10:08;13.13;;;6.60;;
71937;SDS011;59810;48.800;9.086;2023-04-06T10:12:35;13.73;;;6.87;;
71937;SDS011;59810;48.800;9.086;2023-04-06T10:15:09;14.13;;;6.72;;
71937;SDS011;59810;48.800;9.086;2023-04-06T10:17:36;13.13;;;6.93;;
71937;SDS011;59810;48.800;9.086;2023-04-06T10:20:03;17.93;;;6.87;;
71937;SDS011;59810;48.800;9.086;2023-04-06T10:25:15;14.45;;;7.32;;
71937;SDS011;59810;48.800;9.086;2023-04-06T10:27:41;15.60;;;6.87;;
71937;SDS011;59810;48.800;9.086;2023-04-06T10:30:06;13.70;;;6.77;;
71937;SDS011;59810;48.800;9.086;2023-04-06T10:32:41;11.70;;;6.00;;
71937;SDS011;59810;48.800;9.086;2023-04-06T10:35:07;13.68;;;6.43;;
71937;SDS011;59810;48.800;9.086;2023-04-06T10:37:45;13.75;;;6.55;;
71937;SDS011;59810;48.800;9.086;2023-04-06T10:40:24;15.73;;;6.93;;
71937;SDS011;59810;48.800;9.086;2023-04-06T10:42:53;14.05;;;6.85;;
71937;SDS011;59810;48.800;9.086;2023-04-06T10:45:20;13.25;;;6.53;;
71937;SDS011;59810;48.800;9.086;2023-04-06T10:47:53;14.10;;;6.13;;
71937;SDS011;59810;48.800;9.086;2023-04-06T10:50:19;12.32;;;5.80;;
71937;SDS011;59810;48.800;9.086;2023-04-06T10:52:45;12.90;;;5.73;;
71937;SDS011;59810;48.800;9.086;2023-04-06T10:55:12;16.23;;;6.00;;
71937;SDS011;59810;48.800;9.086;2023-04-06T10:57:42;11.98;;;5.93;;
71937;SDS011;59810;48.800;9.086;2023-04-06T11:00:07;13.07;;;5.95;;
71937;SDS011;59810;48.800;9.086;2023-04-06T11:02:34;15.38;;;6.88;;
71937;SDS011;59810;48.800;9.086;2023-04-06T11:05:01;13.17;;;6.30;;
71937;SDS011;59810;48.800;9.086;2023-04-06T11:07:27;13.57;;;6.17;;
71937;SDS011;59810;48.800;9.086;2023-04-06T11:09:54;12.17;;;6.43;;
71937;SDS011;59810;48.800;9.086;2023-04-06T11:14:57;12.50;;;5.93;;
71937;SDS011;59810;48.800;9.086;2023-04-06T11:17:31;11.30;;;5.53;;
71937;SDS011;59810;48.800;9.086;2023-04-06T11:19:59;16.98;;;6.20;;
71937;SDS011;59810;48.800;9.086;2023-04-06T11:22:25;10.25;;;5.43;;
71937;SDS011;59810;48.800;9.086;2023-04-06T11:24:51;11.03;;;5.47;;
71937;SDS011;59810;48.800;9.086;2023-04-06T11:27:17;11.07;;;5.70;;
71937;SDS011;59810;48.800;9.086;2023-04-06T11:29:50;13.07;;;6.03;;
71937;SDS011;59810;48.800;9.086;2023-04-06T11:32:22;12.65;;;6.10;;
71937;SDS011;59810;48.800;9.086;2023-04-06T11:34:48;13.00;;;6.28;;
71937;SDS011;59810;48.800;9.086;2023-04-06T11:37:14;13.80;;;7.63;;
71937;SDS011;59810;48.800;9.086;2023-04-06T11:39:53;13.47;;;6.33;;
71937;SDS011;59810;48.800;9.086;2023-04-06T11:42:26;11.88;;;5.97;;
71937;SDS011;59810;48.800;9.086;2023-04-06T11:44:58;11.25;;;6.05;;
71937;SDS011;59810;48.800;9.086;2023-04-06T11:47:28;12.65;;;6.38;;
71937;SDS011;59810;48.800;9.086;2023-04-06T11:49:55;14.35;;;6.60;;
71937;SDS011;59810;48.800;9.086;2023-04-06T11:52:24;13.30;;;6.33;;
71937;SDS011;59810;48.800;9.086;2023-04-06T11:54:51;12.25;;;6.13;;
71937;SDS011;59810;48.800;9.086;2023-04-06T11:57:19;13.18;;;6.28;;
71937;SDS011;59810;48.800;9.086;2023-04-06T11:59:46;11.20;;;6.13;;
71937;SDS011;59810;48.800;9.086;2023-04-06T12:02:12;11.80;;;5.80;;
71937;SDS011;59810;48.800;9.086;2023-04-06T12:04:37;11.30;;;5.67;;
71937;SDS011;59810;48.800;9.086;2023-04-06T12:07:05;12.45;;;6.00;;
71937;SDS011;59810;48.800;9.086;2023-04-06T12:09:33;12.63;;;5.82;;
71937;SDS011;59810;48.800;9.086;2023-04-06T12:11:59;11.40;;;5.57;;
71937;SDS011;59810;48.800;9.086;2023-04-06T12:14:25;12.48;;;5.60;;
71937;SDS011;59810;48.800;9.086;2023-04-06T12:16:50;11.17;;;5.50;;
71937;SDS011;59810;48.800;9.086;2023-04-06T12:19:18;10.30;;;5.55;;
71937;SDS011;59810;48.800;9.086;2023-04-06T12:21:43;11.67;;;5.73;;
71937;SDS011;59810;48.800;9.086;2023-04-06T12:24:09;11.68;;;6.57;;
71937;SDS011;59810;48.800;9.086;2023-04-06T12:26:34;10.43;;;5.27;;
71937;SDS011;59810;48.800;9.086;2023-04-06T12:29:00;13.98;;;6.15;;
71937;SDS011;59810;48.800;9.086;2023-04-06T12:31:31;13.33;;;5.70;;
71937;SDS011;59810;48.800;9.086;2023-04-06T12:33:58;10.90;;;5.70;;
71937;SDS011;59810;48.800;9.086;2023-04-06T12:36:23;12.37;;;6.23;;
71937;SDS011;59810;48.800;9.086;2023-04-06T12:38:49;11.60;;;5.88;;
71937;SDS011;59810;48.800;9.086;2023-04-06T12:41:15;10.07;;;5.10;;
71937;SDS011;59810;48.800;9.086;2023-04-06T12:43:41;11.38;;;5.22;;
71937;SDS011;59810;48.800;9.086;2023-04-06T12:46:07;10.27;;;5.15;;
71937;SDS011;59810;48.800;9.086;2023-04-06T12:48:33;10.17;;;5.70;;
71937;SDS011;59810;48.800;9.086;2023-04-06T12:51:02;11.23;;;5.75;;
71937;SDS011;59810;48.800;9.086;2023-04-06T12:53:29;11.10;;;5.50;;
71937;SDS011;59810;48.800;9.086;2023-04-06T12:55:57;12.80;;;5.90;;
71937;SDS011;59810;48.800;9.086;2023-04-06T12:58:25;12.18;;;6.10;;
71937;SDS011;59810;48.800;9.086;2023-04-06T13:00:55;10.90;;;5.53;;
71937;SDS011;59810;48.800;9.086;2023-04-06T13:03:27;9.70;;;4.90;;
71937;SDS011;59810;48.800;9.086;2023-04-06T13:05:55;11.37;;;5.67;;
71937;SDS011;59810;48.800;9.086;2023-04-06T13:08:23;10.63;;;5.55;;
71937;SDS011;59810;48.800;9.086;2023-04-06T13:10:48;9.87;;;5.70;;
71937;SDS011;59810;48.800;9.086;2023-04-06T13:13:21;10.93;;;5.70;;
71937;SDS011;59810;48.800;9.086;2023-04-06T13:15:48;9.53;;;4.93;;
71937;SDS011;59810;48.800;9.086;2023-04-06T13:18:13;10.57;;;5.60;;
71937;SDS011;59810;48.800;9.086;2023-04-06T13:20:38;9.90;;;5.67;;
71937;SDS011;59810;48.800;9.086;2023-04-06T13:23:04;11.33;;;5.97;;
71937;SDS011;59810;48.800;9.086;2023-04-06T13:25:30;11.00;;;5.43;;
71937;SDS011;59810;48.800;9.086;2023-04-06T13:27:55;11.53;;;6.30;;
71937;SDS011;59810;48.800;9.086;2023-04-06T13:30:21;17.73;;;6.10;;
71937;SDS011;59810;48.800;9.086;2023-04-06T13:32:46;10.82;;;5.60;;
71937;SDS011;59810;48.800;9.086;2023-04-06T13:35:12;12.87;;;6.03;;
71937;SDS011;59810;48.800;9.086;2023-04-06T13:37:37;11.60;;;5.40;;
71937;SDS011;59810;48.800;9.086;2023-04-06T13:40:03;11.18;;;6.13;;
71937;SDS011;59810;48.800;9.086;2023-04-06T13:42:30;10.60;;;5.70;;
71937;SDS011;59810;48.800;9.086;2023-04-06T13:44:55;10.98;;;5.68;;
71937;SDS011;59810;48.800;9.086;2023-04-06T13:47:21;12.20;;;5.40;;
71937;SDS011;59810;48.800;9.086;2023-04-06T13:49:47;10.07;;;5.20;;
71937;SDS011;59810;48.800;9.086;2023-04-06T13:52:14;10.93;;;5.50;;
71937;SDS011;59810;48.800;9.086;2023-04-06T13:54:43;9.35;;;5.07;;
71937;SDS011;59810;48.800;9.086;2023-04-06T13:57:08;11.50;;;5.33;;
71937;SDS011;59810;48.800;9.086;2023-04-06T13:59:34;14.38;;;5.55;;
71937;SDS011;59810;48.800;9.086;2023-04-06T14:02:05;9.80;;;5.40;;
71937;SDS011;59810;48.800;9.086;2023-04-06T14:04:32;13.27;;;5.50;;
71937;SDS011;59810;48.800;9.086;2023-04-06T14:06:59;9.45;;;5.07;;
71937;SDS011;59810;48.800;9.086;2023-04-06T14:09:25;7.85;;;4.47;;
71937;SDS011;59810;48.800;9.086;2023-04-06T14:11:54;8.75;;;4.88;;
71937;SDS011;59810;48.800;9.086;2023-04-06T14:14:23;11.43;;;5.05;;
71937;SDS011;59810;48.800;9.086;2023-04-06T14:16:54;9.77;;;5.20;;
71937;SDS011;59810;48.800;9.086;2023-04-06T14:19:21;9.70;;;5.20;;
71937;SDS011;59810;48.800;9.086;2023-04-06T14:21:49;8.88;;;4.78;;
71937;SDS011;59810;48.800;9.086;2023-04-06T14:24:15;9.97;;;5.30;;
71937;SDS011;59810;48.800;9.086;2023-04-06T14:26:42;10.60;;;5.32;;
71937;SDS011;59810;48.800;9.086;2023-04-06T14:29:07;10.87;;;5.43;;
71937;SDS011;59810;48.800;9.086;2023-04-06T14:31:36;10.95;;;5.13;;
71937;SDS011;59810;48.800;9.086;2023-04-06T14:34:03;9.15;;;4.88;;
71937;SDS011;59810;48.800;9.086;2023-04-06T14:36:31;10.70;;;5.00;;
71937;SDS011;59810;48.800;9.086;2023-04-06T14:39:01;10.90;;;4.68;;
71937;SDS011;59810;48.800;9.086;2023-04-06T14:41:29;8.88;;;4.32;;
71937;SDS011;59810;48.800;9.086;2023-04-06T14:43:58;9.77;;;4.40;;
71937;SDS011;59810;48.800;9.086;2023-04-06T14:46:24;10.60;;;3.90;;